createdAt,value
2019-04-16T00:00:20.120Z,10.60
2019-04-16T00:01:17.358Z,10.60
2019-04-16T00:02:06.215Z,10.60
2019-04-16T00:02:52.542Z,10.60
2019-04-16T00:03:27.622Z,10.60
2019-04-16T00:04:09.259Z,10.50
2019-04-16T00:05:03.677Z,10.60
2019-04-16T00:05:58.459Z,10.50
2019-04-16T00:06:52.816Z,10.50
2019-04-16T00:07:42.111Z,10.50
2019-04-16T00:08:27.624Z,10.50
2019-04-16T00:09:00.633Z,10.50
2019-04-16T00:09:54.758Z,10.40
2019-04-16T00:10:44.252Z,10.40
2019-04-16T00:11:30.127Z,10.40
2019-04-16T00:12:18.050Z,10.40
2019-04-16T00:13:11.060Z,10.40
2019-04-16T00:13:50.738Z,10.40
2019-04-16T00:14:28.808Z,10.40
2019-04-16T00:15:03.986Z,10.40
2019-04-16T00:15:41.305Z,10.30
2019-04-16T00:16:17.243Z,10.30
2019-04-16T00:16:52.310Z,10.30
2019-04-16T00:17:27.389Z,10.30
2019-04-16T00:18:02.724Z,10.30
2019-04-16T00:18:37.802Z,10.30
2019-04-16T00:19:12.939Z,10.30
2019-04-16T00:19:48.015Z,10.30
2019-04-16T00:20:23.068Z,10.30
2019-04-16T00:21:23.503Z,10.30
2019-04-16T00:22:12.333Z,10.30
2019-04-16T00:23:02.359Z,10.20
2019-04-16T00:23:55.392Z,10.20
2019-04-16T00:24:33.176Z,10.20
2019-04-16T00:25:08.252Z,10.20
2019-04-16T00:25:43.381Z,10.10
2019-04-16T00:26:18.798Z,10.20
2019-04-16T00:26:58.099Z,10.20
2019-04-16T00:27:32.362Z,10.20
2019-04-16T00:28:07.429Z,10.10
2019-04-16T00:28:42.500Z,10.20
2019-04-16T00:29:17.570Z,10.10
2019-04-16T00:29:52.681Z,10.10
2019-04-16T00:30:28.026Z,10.10
2019-04-16T00:31:04.740Z,10.10
2019-04-16T00:31:39.986Z,10.10
2019-04-16T00:32:19.799Z,10.10
2019-04-16T00:32:54.856Z,10.10
2019-04-16T00:33:29.909Z,10.10
2019-04-16T00:34:05.002Z,10.10
2019-04-16T00:34:44.545Z,10.10
2019-04-16T00:35:16.841Z,10.00
2019-04-16T00:35:51.902Z,10.00
2019-04-16T00:36:26.944Z,10.00
2019-04-16T00:37:02.001Z,10.00
2019-04-16T00:37:37.055Z,10.00
2019-04-16T00:38:12.124Z,10.00
2019-04-16T00:38:47.183Z,10.00
2019-04-16T00:39:24.803Z,10.00
2019-04-16T00:39:59.034Z,10.00
2019-04-16T00:40:34.111Z,10.00
2019-04-16T00:41:09.156Z,10.00
2019-04-16T00:41:45.284Z,10.00
2019-04-16T00:42:20.401Z,9.90
2019-04-16T00:42:55.667Z,10.00
2019-04-16T00:43:30.764Z,10.00
2019-04-16T00:44:05.824Z,10.00
2019-04-16T00:44:40.901Z,10.00
2019-04-16T00:45:16.611Z,9.90
2019-04-16T00:45:51.659Z,9.90
2019-04-16T00:46:26.711Z,9.90
2019-04-16T00:47:01.795Z,9.90
2019-04-16T00:47:36.879Z,9.90
2019-04-16T00:48:12.292Z,9.90
2019-04-16T00:48:47.600Z,9.90
2019-04-16T00:49:26.339Z,9.90
2019-04-16T00:49:59.643Z,9.90
2019-04-16T00:50:34.991Z,9.90
2019-04-16T00:51:10.076Z,9.90
2019-04-16T00:51:45.410Z,9.90
2019-04-16T00:52:20.716Z,9.90
2019-04-16T00:52:55.940Z,9.90
2019-04-16T00:53:32.299Z,9.90
2019-04-16T00:54:10.356Z,9.90
2019-04-16T00:54:44.153Z,9.90
2019-04-16T00:55:19.220Z,9.80
2019-04-16T00:55:54.284Z,9.80
2019-04-16T00:56:30.418Z,9.80
2019-04-16T00:57:05.793Z,9.80
2019-04-16T00:57:41.930Z,9.80
2019-04-16T00:58:19.514Z,9.80
2019-04-16T00:58:53.822Z,9.80
2019-04-16T00:59:28.895Z,9.80
2019-04-16T01:00:04.455Z,9.80
2019-04-16T01:00:39.966Z,9.80
2019-04-16T01:01:15.054Z,9.80
2019-04-16T01:01:50.115Z,9.80
2019-04-16T01:02:25.510Z,9.80
2019-04-16T01:03:00.595Z,9.80
2019-04-16T01:03:35.643Z,9.80
2019-04-16T01:04:10.709Z,9.80
2019-04-16T01:04:45.872Z,9.80
2019-04-16T01:05:20.921Z,9.70
2019-04-16T01:05:56.252Z,9.80
2019-04-16T01:06:31.529Z,9.70
2019-04-16T01:07:06.801Z,9.80
2019-04-16T01:07:41.927Z,9.70
2019-04-16T01:08:17.235Z,9.80
2019-04-16T01:08:54.789Z,9.80
2019-04-16T01:09:30.313Z,9.70
2019-04-16T01:10:05.393Z,9.70
2019-04-16T01:10:40.599Z,9.70
2019-04-16T01:11:15.820Z,9.70
2019-04-16T01:11:51.254Z,9.70
2019-04-16T01:12:26.639Z,9.70
2019-04-16T01:13:01.698Z,9.70
2019-04-16T01:13:37.355Z,9.70
2019-04-16T01:14:12.420Z,9.70
2019-04-16T01:14:47.490Z,9.70
2019-04-16T01:15:22.568Z,9.60
2019-04-16T01:16:02.685Z,9.60
2019-04-16T01:16:34.423Z,9.60
2019-04-16T01:17:09.728Z,9.60
2019-04-16T01:17:45.042Z,9.60
2019-04-16T01:18:20.491Z,9.60
2019-04-16T01:18:55.554Z,9.60
2019-04-16T01:19:30.628Z,9.60
2019-04-16T01:20:06.375Z,9.60
2019-04-16T01:20:43.203Z,9.60
2019-04-16T01:21:18.653Z,9.60
2019-04-16T01:21:53.739Z,9.60
2019-04-16T01:22:29.127Z,9.60
2019-04-16T01:23:04.200Z,9.60
2019-04-16T01:23:39.276Z,9.60
2019-04-16T01:24:14.338Z,9.60
2019-04-16T01:24:52.579Z,9.60
2019-04-16T01:25:26.163Z,9.60
2019-04-16T01:26:01.537Z,9.60
2019-04-16T01:26:37.019Z,9.60
2019-04-16T01:27:12.075Z,9.50
2019-04-16T01:27:50.796Z,9.50
2019-04-16T01:28:29.394Z,9.50
2019-04-16T01:29:10.370Z,9.50
2019-04-16T01:29:45.737Z,9.50
2019-04-16T01:30:36.333Z,9.50
2019-04-16T01:31:21.044Z,9.50
2019-04-16T01:32:14.243Z,9.50
2019-04-16T01:33:14.436Z,9.40
2019-04-16T01:33:57.300Z,9.50
2019-04-16T01:34:53.110Z,9.50
2019-04-16T01:35:56.061Z,9.50
2019-04-16T01:36:45.950Z,9.50
2019-04-16T01:37:46.219Z,9.50
2019-04-16T01:38:35.153Z,9.50
2019-04-16T01:39:17.356Z,9.50
2019-04-16T01:39:48.335Z,9.50
2019-04-16T01:40:28.480Z,9.50
2019-04-16T01:41:05.576Z,9.50
2019-04-16T01:41:40.611Z,9.50
2019-04-16T01:42:15.667Z,9.50
2019-04-16T01:42:54.450Z,9.40
2019-04-16T01:43:27.478Z,9.50
2019-04-16T01:44:02.539Z,9.50
2019-04-16T01:44:37.590Z,9.40
2019-04-16T01:45:12.736Z,9.50
2019-04-16T01:45:47.803Z,9.40
2019-04-16T01:46:22.862Z,9.40
2019-04-16T01:46:58.272Z,9.40
2019-04-16T01:47:37.131Z,9.40
2019-04-16T01:48:10.643Z,9.40
2019-04-16T01:48:45.865Z,9.40
2019-04-16T01:49:20.915Z,9.40
2019-04-16T01:49:55.991Z,9.40
2019-04-16T01:50:31.402Z,9.40
2019-04-16T01:51:06.466Z,9.40
2019-04-16T01:51:41.519Z,9.30
2019-04-16T01:52:18.949Z,9.30
2019-04-16T01:52:53.334Z,9.30
2019-04-16T01:53:28.711Z,9.30
2019-04-16T01:54:03.776Z,9.30
2019-04-16T01:54:38.818Z,9.30
2019-04-16T01:55:13.887Z,9.30
2019-04-16T01:55:49.289Z,9.30
2019-04-16T01:56:27.723Z,9.30
2019-04-16T01:57:01.356Z,9.30
2019-04-16T01:57:36.411Z,9.20
2019-04-16T01:58:27.398Z,9.30
2019-04-16T01:59:05.465Z,9.30
2019-04-16T01:59:42.367Z,9.30
2019-04-16T02:00:17.448Z,9.30
2019-04-16T02:00:52.515Z,9.30
2019-04-16T02:01:27.570Z,9.30
2019-04-16T02:02:02.679Z,9.20
2019-04-16T02:02:38.153Z,9.20
2019-04-16T02:03:17.531Z,9.20
2019-04-16T02:03:50.383Z,9.20
2019-04-16T02:04:25.735Z,9.20
2019-04-16T02:05:00.800Z,9.20
2019-04-16T02:05:36.199Z,9.20
2019-04-16T02:06:11.702Z,9.20
2019-04-16T02:06:46.782Z,9.20
2019-04-16T02:07:21.895Z,9.20
2019-04-16T02:07:59.282Z,9.20
2019-04-16T02:08:33.831Z,9.20
2019-04-16T02:09:21.774Z,9.20
2019-04-16T02:09:45.672Z,9.20
2019-04-16T02:10:22.082Z,9.10
2019-04-16T02:10:57.260Z,9.20
2019-04-16T02:11:32.764Z,9.20
2019-04-16T02:12:12.768Z,9.10
2019-04-16T02:12:44.856Z,9.20
2019-04-16T02:13:20.281Z,9.10
2019-04-16T02:13:56.095Z,9.20
2019-04-16T02:14:31.315Z,9.20
2019-04-16T02:15:08.123Z,9.10
2019-04-16T02:15:43.211Z,9.10
2019-04-16T02:16:18.284Z,9.10
2019-04-16T02:16:56.139Z,9.10
2019-04-16T02:17:31.264Z,9.10
2019-04-16T02:18:06.314Z,9.20
2019-04-16T02:18:41.403Z,9.20
2019-04-16T02:19:16.490Z,9.10
2019-04-16T02:19:51.547Z,9.10
2019-04-16T02:20:26.620Z,9.10
2019-04-16T02:21:01.869Z,9.10
2019-04-16T02:21:38.996Z,9.10
2019-04-16T02:22:14.146Z,9.00
2019-04-16T02:22:49.340Z,9.10
2019-04-16T02:23:24.433Z,9.10
2019-04-16T02:23:59.558Z,9.00
2019-04-16T02:24:34.628Z,9.00
2019-04-16T02:25:09.692Z,9.00
2019-04-16T02:25:44.777Z,9.00
2019-04-16T02:26:20.606Z,9.00
2019-04-16T02:26:56.651Z,9.00
2019-04-16T02:27:31.732Z,8.90
2019-04-16T02:28:06.811Z,8.90
2019-04-16T02:28:42.707Z,9.00
2019-04-16T02:29:17.842Z,9.00
2019-04-16T02:29:53.777Z,9.00
2019-04-16T02:30:28.974Z,8.90
2019-04-16T02:31:04.092Z,8.90
2019-04-16T02:31:39.124Z,8.90
2019-04-16T02:32:14.564Z,8.90
2019-04-16T02:32:49.657Z,8.90
2019-04-16T02:33:24.730Z,8.80
2019-04-16T02:33:59.820Z,8.80
2019-04-16T02:34:35.096Z,8.80
2019-04-16T02:35:10.180Z,8.80
2019-04-16T02:35:46.469Z,8.80
2019-04-16T02:36:21.543Z,8.80
2019-04-16T02:37:00.886Z,8.80
2019-04-16T02:37:36.330Z,8.80
2019-04-16T02:38:13.678Z,8.80
2019-04-16T02:38:53.262Z,8.80
2019-04-16T02:39:46.522Z,8.80
2019-04-16T02:40:02.711Z,8.80
2019-04-16T02:40:38.073Z,8.80
2019-04-16T02:41:13.159Z,8.80
2019-04-16T02:41:48.764Z,8.70
2019-04-16T02:42:30.715Z,8.80
2019-04-16T02:43:06.103Z,8.80
2019-04-16T02:43:41.073Z,8.70
2019-04-16T02:44:17.127Z,8.70
2019-04-16T02:44:52.060Z,8.70
2019-04-16T02:45:27.206Z,8.70
2019-04-16T02:46:02.751Z,8.70
2019-04-16T02:46:37.891Z,8.70
2019-04-16T02:47:13.445Z,8.70
2019-04-16T02:47:48.626Z,8.70
2019-04-16T02:48:23.740Z,8.70
2019-04-16T02:48:58.927Z,8.70
2019-04-16T02:49:34.059Z,8.70
2019-04-16T02:50:12.327Z,8.70
2019-04-16T02:50:50.359Z,8.70
2019-04-16T02:51:47.634Z,8.60
2019-04-16T02:52:52.525Z,8.60
2019-04-16T02:54:00.014Z,8.60
2019-04-16T02:54:40.961Z,8.60
2019-04-16T02:55:43.882Z,8.60
2019-04-16T02:56:52.131Z,8.60
2019-04-16T02:57:52.014Z,8.60
2019-04-16T02:58:35.289Z,8.60
2019-04-16T02:59:14.292Z,8.60
2019-04-16T02:59:49.723Z,8.60
2019-04-16T03:00:49.166Z,8.60
2019-04-16T03:01:37.848Z,8.60
2019-04-16T03:02:34.794Z,8.60
2019-04-16T03:03:13.974Z,8.60
2019-04-16T03:04:00.080Z,8.60
2019-04-16T03:04:40.164Z,8.60
2019-04-16T03:05:29.066Z,8.60
2019-04-16T03:06:05.903Z,8.60
2019-04-16T03:06:41.235Z,8.60
2019-04-16T03:07:16.296Z,8.50
2019-04-16T03:07:51.390Z,8.60
2019-04-16T03:08:26.496Z,8.60
2019-04-16T03:09:01.800Z,8.60
2019-04-16T03:09:40.277Z,8.50
2019-04-16T03:10:16.387Z,8.50
2019-04-16T03:10:51.461Z,8.50
2019-04-16T03:11:26.529Z,8.50
2019-04-16T03:12:01.600Z,8.50
2019-04-16T03:12:37.064Z,8.50
2019-04-16T03:13:12.208Z,8.50
2019-04-16T03:13:47.280Z,8.50
2019-04-16T03:14:22.604Z,8.50
2019-04-16T03:15:00.838Z,8.50
2019-04-16T03:16:09.064Z,8.40
2019-04-16T03:16:57.799Z,8.40
2019-04-16T03:17:42.935Z,8.40
2019-04-16T03:18:20.282Z,8.40
2019-04-16T03:19:04.707Z,8.40
2019-04-16T03:19:41.646Z,8.40
2019-04-16T03:20:17.222Z,8.40
2019-04-16T03:20:52.498Z,8.40
2019-04-16T03:21:29.081Z,8.30
2019-04-16T03:22:04.171Z,8.30
2019-04-16T03:22:39.284Z,8.30
2019-04-16T03:23:14.359Z,8.30
2019-04-16T03:23:49.519Z,8.30
2019-04-16T03:24:24.622Z,8.30
2019-04-16T03:24:59.739Z,8.30
2019-04-16T03:25:34.899Z,8.30
2019-04-16T03:26:09.968Z,8.30
2019-04-16T03:26:47.580Z,8.30
2019-04-16T03:27:22.988Z,8.30
2019-04-16T03:27:58.924Z,8.30
2019-04-16T03:28:34.000Z,8.30
2019-04-16T03:29:09.136Z,8.30
2019-04-16T03:29:44.315Z,8.30
2019-04-16T03:30:19.380Z,8.30
2019-04-16T03:30:54.437Z,8.30
2019-04-16T03:31:29.778Z,8.20
2019-04-16T03:32:05.106Z,8.20
2019-04-16T03:32:51.413Z,8.20
2019-04-16T03:33:26.709Z,8.20
2019-04-16T03:34:02.068Z,8.20
2019-04-16T03:34:37.204Z,8.20
2019-04-16T03:35:12.292Z,8.20
2019-04-16T03:35:47.372Z,8.20
2019-04-16T03:36:22.457Z,8.20
2019-04-16T03:36:58.642Z,8.20
2019-04-16T03:37:34.379Z,8.10
2019-04-16T03:38:09.612Z,8.10
2019-04-16T03:38:44.772Z,8.10
2019-04-16T03:39:19.855Z,8.20
2019-04-16T03:39:54.921Z,8.10
2019-04-16T03:40:30.056Z,8.10
2019-04-16T03:41:05.492Z,8.20
2019-04-16T03:41:40.569Z,8.20
2019-04-16T03:42:15.689Z,8.10
2019-04-16T03:42:50.759Z,8.10
2019-04-16T03:43:25.949Z,8.10
2019-04-16T03:44:03.670Z,8.10
2019-04-16T03:44:37.939Z,8.10
2019-04-16T03:45:13.273Z,8.10
2019-04-16T03:45:48.362Z,8.10
2019-04-16T03:46:23.437Z,8.10
2019-04-16T03:46:58.623Z,8.00
2019-04-16T03:47:33.703Z,8.00
2019-04-16T03:48:08.772Z,8.00
2019-04-16T03:48:43.847Z,8.00
2019-04-16T03:49:18.987Z,8.10
2019-04-16T03:49:56.414Z,8.00
2019-04-16T03:50:32.273Z,8.10
2019-04-16T03:51:07.391Z,8.00
2019-04-16T03:51:42.767Z,8.00
2019-04-16T03:52:17.930Z,8.10
2019-04-16T03:52:52.994Z,8.00
2019-04-16T03:53:28.327Z,8.00
2019-04-16T03:54:04.895Z,8.10
2019-04-16T03:54:41.456Z,8.10
2019-04-16T03:55:16.587Z,8.00
2019-04-16T03:55:54.609Z,8.10
2019-04-16T03:56:30.512Z,8.00
2019-04-16T03:57:05.275Z,8.00
2019-04-16T03:57:40.723Z,8.00
2019-04-16T03:58:15.848Z,8.00
2019-04-16T03:58:50.931Z,8.00
2019-04-16T03:59:26.068Z,8.00
2019-04-16T04:00:01.165Z,8.00
2019-04-16T04:00:36.213Z,8.00
2019-04-16T04:01:14.244Z,8.00
2019-04-16T04:01:48.018Z,8.00
2019-04-16T04:02:23.188Z,8.00
2019-04-16T04:02:58.355Z,8.00
2019-04-16T04:03:33.530Z,8.00
2019-04-16T04:04:08.597Z,7.90
2019-04-16T04:04:43.720Z,7.90
2019-04-16T04:05:18.782Z,7.90
2019-04-16T04:05:57.378Z,7.90
2019-04-16T04:06:32.521Z,8.00
2019-04-16T04:07:09.025Z,7.90
2019-04-16T04:07:45.109Z,7.90
2019-04-16T04:08:21.306Z,7.90
2019-04-16T04:08:56.448Z,7.90
2019-04-16T04:09:31.544Z,7.90
2019-04-16T04:10:07.258Z,7.90
2019-04-16T04:10:42.348Z,7.90
2019-04-16T04:11:17.485Z,7.90
2019-04-16T04:11:52.575Z,7.90
2019-04-16T04:12:27.962Z,8.00
2019-04-16T04:13:04.989Z,7.90
2019-04-16T04:13:41.156Z,7.90
2019-04-16T04:14:21.637Z,7.90
2019-04-16T04:14:54.297Z,7.90
2019-04-16T04:15:30.169Z,7.90
2019-04-16T04:16:06.080Z,7.90
2019-04-16T04:16:41.323Z,7.90
2019-04-16T04:17:16.414Z,7.90
2019-04-16T04:17:51.502Z,7.90
2019-04-16T04:18:26.705Z,7.80
2019-04-16T04:19:01.799Z,7.80
2019-04-16T04:19:36.923Z,7.80
2019-04-16T04:20:14.610Z,7.80
2019-04-16T04:20:50.508Z,7.80
2019-04-16T04:21:26.127Z,7.80
2019-04-16T04:22:01.271Z,7.80
2019-04-16T04:22:36.367Z,7.80
2019-04-16T04:23:11.477Z,7.80
2019-04-16T04:23:46.555Z,7.80
2019-04-16T04:24:21.649Z,7.80
2019-04-16T04:24:56.776Z,7.80
2019-04-16T04:25:36.013Z,7.80
2019-04-16T04:26:10.128Z,7.80
2019-04-16T04:26:45.640Z,7.70
2019-04-16T04:27:21.029Z,7.70
2019-04-16T04:27:56.252Z,7.70
2019-04-16T04:28:32.471Z,7.70
2019-04-16T04:29:07.818Z,7.70
2019-04-16T04:29:46.302Z,7.70
2019-04-16T04:30:25.683Z,7.70
2019-04-16T04:31:00.983Z,7.70
2019-04-16T04:31:36.257Z,7.70
2019-04-16T04:32:11.350Z,7.60
2019-04-16T04:32:47.646Z,7.60
2019-04-16T04:33:43.054Z,7.60
2019-04-16T04:34:17.413Z,7.60
2019-04-16T04:34:52.913Z,7.60
2019-04-16T04:35:28.061Z,7.60
2019-04-16T04:36:03.289Z,7.60
2019-04-16T04:36:38.435Z,7.60
2019-04-16T04:37:14.539Z,7.60
2019-04-16T04:37:49.615Z,7.60
2019-04-16T04:38:24.711Z,7.60
2019-04-16T04:38:59.840Z,7.60
2019-04-16T04:39:35.243Z,7.60
2019-04-16T04:40:12.788Z,7.60
2019-04-16T04:40:50.418Z,7.60
2019-04-16T04:41:24.420Z,7.60
2019-04-16T04:41:59.549Z,7.60
2019-04-16T04:42:36.202Z,7.60
2019-04-16T04:43:11.848Z,7.60
2019-04-16T04:43:46.960Z,7.60
2019-04-16T04:44:22.120Z,7.60
2019-04-16T04:44:57.554Z,7.60
2019-04-16T04:45:32.945Z,7.60
2019-04-16T04:46:12.976Z,7.60
2019-04-16T04:46:46.095Z,7.50
2019-04-16T04:47:22.057Z,7.50
2019-04-16T04:47:57.135Z,7.50
2019-04-16T04:48:32.241Z,7.50
2019-04-16T04:49:07.658Z,7.50
2019-04-16T04:49:42.739Z,7.50
2019-04-16T04:50:18.245Z,7.50
2019-04-16T04:50:53.412Z,7.50
2019-04-16T04:51:28.484Z,7.50
2019-04-16T04:52:03.602Z,7.50
2019-04-16T04:52:38.724Z,7.50
2019-04-16T04:53:15.605Z,7.50
2019-04-16T04:53:51.344Z,7.40
2019-04-16T04:54:26.494Z,7.40
2019-04-16T04:55:01.594Z,7.40
2019-04-16T04:55:36.654Z,7.40
2019-04-16T04:56:11.794Z,7.40
2019-04-16T04:56:46.950Z,7.40
2019-04-16T04:57:22.052Z,7.40
2019-04-16T04:57:57.489Z,7.40
2019-04-16T04:58:34.032Z,7.40
2019-04-16T04:59:09.471Z,7.40
2019-04-16T04:59:44.555Z,7.40
2019-04-16T05:00:20.115Z,7.40
2019-04-16T05:00:55.637Z,7.40
2019-04-16T05:01:31.693Z,7.40
2019-04-16T05:02:06.759Z,7.40
2019-04-16T05:02:43.671Z,7.40
2019-04-16T05:03:35.343Z,7.30
2019-04-16T05:04:22.267Z,7.40
2019-04-16T05:05:24.744Z,7.40
2019-04-16T05:05:57.546Z,7.40
2019-04-16T05:06:35.291Z,7.40
2019-04-16T05:07:10.907Z,7.40
2019-04-16T05:07:46.307Z,7.40
2019-04-16T05:08:21.594Z,7.40
2019-04-16T05:08:57.661Z,7.40
2019-04-16T05:09:36.394Z,7.40
2019-04-16T05:10:10.574Z,7.40
2019-04-16T05:10:58.448Z,7.40
2019-04-16T05:11:22.482Z,7.40
2019-04-16T05:11:57.571Z,7.40
2019-04-16T05:12:32.629Z,7.40
2019-04-16T05:13:07.718Z,7.40
2019-04-16T05:13:42.787Z,7.40
2019-04-16T05:14:17.957Z,7.40
2019-04-16T05:14:57.507Z,7.40
2019-04-16T05:15:32.315Z,7.40
2019-04-16T05:16:07.401Z,7.40
2019-04-16T05:16:42.492Z,7.40
2019-04-16T05:17:17.748Z,7.40
2019-04-16T05:17:53.007Z,7.40
2019-04-16T05:18:28.100Z,7.50
2019-04-16T05:19:03.586Z,7.50
2019-04-16T05:19:38.642Z,7.50
2019-04-16T05:20:15.398Z,7.50
2019-04-16T05:20:50.778Z,7.50
2019-04-16T05:21:25.843Z,7.50
2019-04-16T05:22:00.907Z,7.60
2019-04-16T05:22:35.969Z,7.50
2019-04-16T05:23:11.056Z,7.50
2019-04-16T05:23:46.149Z,7.60
2019-04-16T05:24:21.227Z,7.60
2019-04-16T05:25:00.856Z,7.60
2019-04-16T05:25:34.364Z,7.60
2019-04-16T05:26:09.917Z,7.60
2019-04-16T05:26:45.250Z,7.60
2019-04-16T05:27:20.327Z,7.60
2019-04-16T05:27:55.431Z,7.60
2019-04-16T05:28:30.548Z,7.60
2019-04-16T05:29:16.139Z,7.60
2019-04-16T05:29:49.653Z,7.70
2019-04-16T05:30:24.830Z,7.70
2019-04-16T05:30:59.933Z,7.70
2019-04-16T05:31:35.291Z,7.70
2019-04-16T05:32:10.375Z,7.70
2019-04-16T05:32:45.448Z,7.70
2019-04-16T05:33:20.782Z,7.70
2019-04-16T05:33:59.480Z,7.70
2019-04-16T05:34:34.621Z,7.80
2019-04-16T05:35:10.824Z,7.70
2019-04-16T05:35:46.266Z,7.80
2019-04-16T05:36:21.914Z,7.80
2019-04-16T05:36:57.242Z,7.80
2019-04-16T05:37:32.324Z,7.70
2019-04-16T05:38:07.443Z,7.80
2019-04-16T05:38:42.684Z,7.80
2019-04-16T05:39:18.137Z,7.80
2019-04-16T05:39:58.551Z,7.90
2019-04-16T05:40:34.425Z,7.90
2019-04-16T05:41:13.611Z,7.90
2019-04-16T05:41:45.134Z,7.90
2019-04-16T05:42:22.392Z,7.90
2019-04-16T05:42:58.972Z,7.90
2019-04-16T05:43:33.902Z,7.90
2019-04-16T05:44:09.078Z,8.00
2019-04-16T05:44:44.158Z,7.90
2019-04-16T05:45:19.221Z,8.00
2019-04-16T05:45:54.555Z,8.00
2019-04-16T05:46:29.640Z,8.00
2019-04-16T05:47:04.712Z,8.00
2019-04-16T05:47:39.806Z,8.10
2019-04-16T05:48:14.886Z,8.10
2019-04-16T05:48:51.391Z,8.10
2019-04-16T05:49:26.834Z,8.10
2019-04-16T05:50:01.911Z,8.10
2019-04-16T05:50:37.009Z,8.20
2019-04-16T05:51:12.103Z,8.20
2019-04-16T05:51:47.176Z,8.20
2019-04-16T05:52:22.288Z,8.20
2019-04-16T05:52:57.724Z,8.30
2019-04-16T05:53:32.804Z,8.30
2019-04-16T05:54:25.579Z,8.30
2019-04-16T05:55:08.329Z,8.30
2019-04-16T05:55:51.223Z,8.30
2019-04-16T05:56:39.906Z,8.40
2019-04-16T05:57:18.774Z,8.40
2019-04-16T05:57:57.897Z,8.50
2019-04-16T05:58:31.598Z,8.50
2019-04-16T05:59:07.045Z,8.50
2019-04-16T05:59:42.138Z,8.50
2019-04-16T06:00:24.172Z,8.60
2019-04-16T06:01:04.039Z,8.60
2019-04-16T06:01:46.266Z,8.60
2019-04-16T06:02:26.397Z,8.60
2019-04-16T06:03:01.475Z,8.60
2019-04-16T06:03:36.560Z,8.60
2019-04-16T06:04:11.655Z,8.60
2019-04-16T06:04:46.722Z,8.70
2019-04-16T06:05:26.803Z,8.70
2019-04-16T06:05:59.361Z,8.70
2019-04-16T06:06:35.103Z,8.70
2019-04-16T06:07:10.363Z,8.70
2019-04-16T06:07:45.694Z,8.80
2019-04-16T06:08:20.751Z,8.80
2019-04-16T06:08:56.214Z,8.80
2019-04-16T06:09:31.589Z,8.80
2019-04-16T06:10:07.361Z,8.80
2019-04-16T06:10:42.567Z,8.90
2019-04-16T06:11:28.675Z,8.90
2019-04-16T06:11:54.415Z,8.90
2019-04-16T06:12:40.210Z,8.90
2019-04-16T06:13:41.302Z,8.90
2019-04-16T06:14:25.442Z,9.00
2019-04-16T06:15:06.486Z,9.00
2019-04-16T06:16:04.318Z,9.00
2019-04-16T06:16:58.488Z,9.00
2019-04-16T06:17:51.536Z,9.10
2019-04-16T06:18:44.928Z,9.10
2019-04-16T06:19:33.108Z,9.10
2019-04-16T06:20:28.953Z,9.10
2019-04-16T06:21:17.938Z,9.20
2019-04-16T06:22:11.099Z,9.20
2019-04-16T06:23:17.178Z,9.20
2019-04-16T06:23:55.101Z,9.20
2019-04-16T06:24:40.088Z,9.20
2019-04-16T06:25:33.043Z,9.30
2019-04-16T06:26:26.938Z,9.30
2019-04-16T06:27:08.112Z,9.30
2019-04-16T06:27:54.234Z,9.40
2019-04-16T06:28:40.123Z,9.40
2019-04-16T06:29:49.367Z,9.40
2019-04-16T06:30:33.764Z,9.40
2019-04-16T06:31:15.899Z,9.50
2019-04-16T06:32:08.366Z,9.50
2019-04-16T06:33:06.131Z,9.50
2019-04-16T06:33:49.814Z,9.50
2019-04-16T06:34:42.614Z,9.60
2019-04-16T06:35:49.647Z,9.60
2019-04-16T06:36:47.944Z,9.60
2019-04-16T06:37:38.570Z,9.60
2019-04-16T06:38:22.331Z,9.70
2019-04-16T06:39:19.406Z,9.70
2019-04-16T06:40:04.489Z,9.70
2019-04-16T06:40:47.712Z,9.80
2019-04-16T06:41:41.930Z,9.80
2019-04-16T06:42:40.020Z,9.80
2019-04-16T06:43:37.011Z,9.80
2019-04-16T06:44:15.969Z,9.80
2019-04-16T06:44:53.472Z,9.90
2019-04-16T06:45:46.683Z,9.90
2019-04-16T06:46:41.482Z,9.90
2019-04-16T06:47:42.829Z,9.90
2019-04-16T06:48:23.697Z,10.00
2019-04-16T06:49:17.686Z,10.00
2019-04-16T06:50:30.229Z,10.00
2019-04-16T06:51:19.992Z,10.00
2019-04-16T06:52:29.330Z,10.10
2019-04-16T06:53:10.091Z,10.10
2019-04-16T06:54:16.827Z,10.20
2019-04-16T06:55:17.541Z,10.20
2019-04-16T06:56:08.791Z,10.20
2019-04-16T06:56:50.438Z,10.30
2019-04-16T06:57:57.224Z,10.30
2019-04-16T06:58:50.833Z,10.30
2019-04-16T06:59:26.770Z,10.30
2019-04-16T07:00:22.648Z,10.30
2019-04-16T07:01:17.885Z,10.40
2019-04-16T07:02:25.013Z,10.40
2019-04-16T07:03:27.385Z,10.40
2019-04-16T07:04:06.881Z,10.50
2019-04-16T07:05:01.315Z,10.50
2019-04-16T07:06:03.687Z,10.50
2019-04-16T07:07:01.038Z,10.60
2019-04-16T07:07:53.799Z,10.60
2019-04-16T07:08:49.830Z,10.60
2019-04-16T07:09:46.029Z,10.60
2019-04-16T07:10:25.474Z,10.70
2019-04-16T07:11:01.744Z,10.70
2019-04-16T07:11:38.633Z,10.80
2019-04-16T07:12:16.886Z,10.80
2019-04-16T07:12:52.618Z,10.80
2019-04-16T07:13:28.043Z,10.80
2019-04-16T07:14:03.363Z,10.90
2019-04-16T07:14:38.443Z,10.80
2019-04-16T07:15:13.531Z,10.90
2019-04-16T07:15:48.603Z,10.90
2019-04-16T07:16:28.131Z,11.00
2019-04-16T07:17:00.922Z,11.00
2019-04-16T07:17:36.098Z,11.00
2019-04-16T07:18:11.152Z,11.00
2019-04-16T07:18:46.397Z,11.00
2019-04-16T07:19:21.479Z,11.10
2019-04-16T07:19:56.547Z,11.10
2019-04-16T07:20:31.583Z,11.10
2019-04-16T07:21:07.698Z,11.10
2019-04-16T07:21:42.764Z,11.20
2019-04-16T07:22:21.213Z,11.20
2019-04-16T07:22:54.607Z,11.20
2019-04-16T07:23:29.706Z,11.30
2019-04-16T07:24:05.041Z,11.30
2019-04-16T07:24:40.389Z,11.30
2019-04-16T07:25:16.020Z,11.30
2019-04-16T07:25:51.661Z,11.30
2019-04-16T07:26:26.744Z,11.40
2019-04-16T07:27:01.940Z,11.40
2019-04-16T07:27:43.629Z,11.40
2019-04-16T07:28:29.601Z,11.40
2019-04-16T07:29:23.193Z,11.50
2019-04-16T07:30:06.904Z,11.50
2019-04-16T07:30:48.399Z,11.50
2019-04-16T07:31:34.181Z,11.60
2019-04-16T07:32:42.988Z,11.60
2019-04-16T07:33:27.454Z,11.70
2019-04-16T07:34:20.580Z,11.80
2019-04-16T07:35:17.781Z,11.80
2019-04-16T07:35:56.760Z,11.80
2019-04-16T07:36:56.912Z,11.90
2019-04-16T07:37:45.663Z,11.90
2019-04-16T07:38:25.723Z,11.90
2019-04-16T07:39:37.218Z,12.00
2019-04-16T07:40:24.109Z,12.00
2019-04-16T07:41:18.455Z,12.00
2019-04-16T07:42:18.571Z,12.00
2019-04-16T07:43:00.419Z,12.10
2019-04-16T07:43:53.965Z,12.10
2019-04-16T07:44:47.332Z,12.10
2019-04-16T07:45:42.677Z,12.20
2019-04-16T07:46:36.008Z,12.20
2019-04-16T07:47:24.177Z,12.20
2019-04-16T07:48:06.849Z,12.20
2019-04-16T07:48:51.475Z,12.30
2019-04-16T07:49:48.417Z,12.30
2019-04-16T07:50:38.167Z,12.30
2019-04-16T07:51:27.746Z,12.40
2019-04-16T07:52:12.289Z,12.40
2019-04-16T07:53:13.552Z,12.40
2019-04-16T07:54:04.644Z,12.40
2019-04-16T07:54:57.704Z,12.50
2019-04-16T07:55:44.243Z,12.60
2019-04-16T07:56:22.012Z,12.60
2019-04-16T07:56:57.408Z,12.70
2019-04-16T07:57:32.482Z,12.70
2019-04-16T07:58:07.553Z,12.70
2019-04-16T07:58:42.627Z,12.80
2019-04-16T07:59:17.692Z,12.80
2019-04-16T07:59:53.031Z,12.80
2019-04-16T08:00:28.202Z,12.80
2019-04-16T08:01:03.270Z,12.90
2019-04-16T08:01:38.372Z,12.90
2019-04-16T08:02:13.434Z,13.00
2019-04-16T08:02:50.784Z,13.00
2019-04-16T08:03:26.811Z,13.00
2019-04-16T08:04:03.153Z,13.10
2019-04-16T08:04:38.454Z,13.10
2019-04-16T08:05:13.515Z,13.20
2019-04-16T08:05:48.584Z,13.20
2019-04-16T08:06:23.678Z,13.20
2019-04-16T08:06:59.001Z,13.20
2019-04-16T08:07:35.486Z,13.30
2019-04-16T08:08:10.563Z,13.30
2019-04-16T08:08:45.817Z,13.30
2019-04-16T08:09:20.885Z,13.30
2019-04-16T08:10:01.705Z,13.40
2019-04-16T08:10:33.732Z,13.40
2019-04-16T08:11:08.783Z,13.50
2019-04-16T08:11:43.835Z,13.50
2019-04-16T08:12:29.877Z,13.50
2019-04-16T08:13:08.122Z,13.50
2019-04-16T08:13:43.540Z,13.60
2019-04-16T08:14:18.936Z,13.60
2019-04-16T08:14:54.076Z,13.70
2019-04-16T08:15:29.131Z,13.60
2019-04-16T08:16:04.335Z,13.70
2019-04-16T08:16:47.160Z,13.70
2019-04-16T08:17:16.522Z,13.80
2019-04-16T08:17:51.587Z,13.80
2019-04-16T08:18:26.697Z,13.80
2019-04-16T08:19:02.156Z,13.90
2019-04-16T08:19:37.775Z,13.90
2019-04-16T08:20:14.069Z,14.00
2019-04-16T08:21:00.392Z,14.00
2019-04-16T08:21:26.180Z,14.00
2019-04-16T08:22:02.373Z,14.00
2019-04-16T08:22:40.126Z,14.10
2019-04-16T08:23:39.402Z,14.10
2019-04-16T08:24:24.438Z,14.20
2019-04-16T08:25:02.911Z,14.30
2019-04-16T08:25:35.346Z,14.30
2019-04-16T08:26:13.027Z,14.40
2019-04-16T08:26:47.194Z,14.50
2019-04-16T08:27:22.327Z,14.50
2019-04-16T08:27:58.684Z,14.70
2019-04-16T08:28:33.808Z,14.80
2019-04-16T08:29:08.929Z,14.90
2019-04-16T08:29:44.995Z,15.00
2019-04-16T08:30:20.114Z,15.10
2019-04-16T08:30:55.191Z,15.20
2019-04-16T08:31:33.170Z,15.30
2019-04-16T08:32:08.304Z,15.50
2019-04-16T08:32:45.816Z,15.60
2019-04-16T08:33:20.236Z,15.80
2019-04-16T08:33:55.744Z,15.90